createdAt,value
2018-09-05T00:00:10.531Z,101654.23
2018-09-05T00:02:39.530Z,101648.34
2018-09-05T00:05:08.870Z,101648.21
2018-09-05T00:07:37.771Z,101645.92
2018-09-05T00:10:06.758Z,101638.50
2018-09-05T00:12:35.917Z,101639.05
2018-09-05T00:15:04.721Z,101641.36
2018-09-05T00:17:33.933Z,101640.78
2018-09-05T00:20:03.204Z,101633.89
2018-09-05T00:22:32.297Z,101634.00
2018-09-05T00:25:01.118Z,101636.50
2018-09-05T00:27:59.420Z,101635.34
2018-09-05T00:30:31.728Z,101637.27
2018-09-05T00:33:01.118Z,101636.80
2018-09-05T00:35:30.178Z,101640.58
2018-09-05T00:37:58.951Z,101640.44
2018-09-05T00:40:28.284Z,101637.70
2018-09-05T00:42:57.027Z,101634.38
2018-09-05T00:45:26.714Z,101638.04
2018-09-05T00:47:55.535Z,101628.19
2018-09-05T00:50:24.551Z,101637.33
2018-09-05T00:52:53.571Z,101629.53
2018-09-05T00:55:22.335Z,101635.27
2018-09-05T00:57:51.164Z,101631.66
2018-09-05T01:00:21.001Z,101628.81
2018-09-05T01:02:50.768Z,101635.53
2018-09-05T01:05:20.538Z,101637.83
2018-09-05T01:07:50.308Z,101642.59
2018-09-05T01:10:20.078Z,101637.27
2018-09-05T01:12:49.280Z,101640.36
2018-09-05T01:15:18.419Z,101638.20
2018-09-05T01:17:47.593Z,101642.97
2018-09-05T01:20:16.950Z,101645.70
2018-09-05T01:22:45.928Z,101645.55
2018-09-05T01:25:15.039Z,101652.17
2018-09-05T01:27:44.336Z,101650.25
2018-09-05T01:30:14.163Z,101652.27
2018-09-05T01:32:42.938Z,101649.53
2018-09-05T01:35:11.741Z,101643.11
2018-09-05T01:37:41.035Z,101641.48
2018-09-05T01:40:16.683Z,101638.04
2018-09-05T01:42:45.547Z,101643.37
2018-09-05T01:45:14.616Z,101634.13
2018-09-05T01:47:43.770Z,101638.58
2018-09-05T01:50:12.602Z,101635.92
2018-09-05T01:52:41.388Z,101636.66
2018-09-05T01:55:10.185Z,101637.00
2018-09-05T01:57:38.929Z,101633.56
2018-09-05T02:00:11.767Z,101638.56
2018-09-05T02:02:40.904Z,101638.20
2018-09-05T02:05:09.927Z,101642.31
2018-09-05T02:07:38.674Z,101640.13
2018-09-05T02:10:07.436Z,101634.19
2018-09-05T02:12:36.745Z,101635.89
2018-09-05T02:15:05.818Z,101634.62
2018-09-05T02:17:35.354Z,101639.95
2018-09-05T02:20:04.744Z,101639.50
2018-09-05T02:22:34.128Z,101634.32
2018-09-05T02:25:02.938Z,101630.09
2018-09-05T02:27:32.043Z,101632.53
2018-09-05T02:30:01.131Z,101626.44
2018-09-05T02:32:29.927Z,101624.89
2018-09-05T02:34:58.726Z,101619.98
2018-09-05T02:37:28.103Z,101624.77
2018-09-05T02:39:56.887Z,101623.94
2018-09-05T02:42:25.687Z,101636.36
2018-09-05T02:44:55.118Z,101632.92
2018-09-05T02:47:24.909Z,101632.55
2018-09-05T02:49:55.252Z,101632.95
2018-09-05T02:52:24.451Z,101635.77
2018-09-05T02:54:53.325Z,101630.63
2018-09-05T02:57:22.287Z,101635.07
2018-09-05T02:59:51.353Z,101637.66
2018-09-05T03:02:20.176Z,101633.66
2018-09-05T03:04:49.257Z,101639.77
2018-09-05T03:07:18.007Z,101636.91
2018-09-05T03:09:47.068Z,101633.19
2018-09-05T03:12:21.033Z,101627.09
2018-09-05T03:14:51.058Z,101627.60
2018-09-05T03:17:20.427Z,101627.44
2018-09-05T03:19:49.158Z,101631.42
2018-09-05T03:22:17.913Z,101628.27
2018-09-05T03:24:46.946Z,101634.08
2018-09-05T03:27:16.439Z,101629.27
2018-09-05T03:29:45.238Z,101636.19
2018-09-05T03:32:15.036Z,101634.11
2018-09-05T03:34:43.831Z,101634.74
2018-09-05T03:37:12.674Z,101628.06
2018-09-05T03:39:42.071Z,101634.70
2018-09-05T03:42:10.856Z,101634.45
2018-09-05T03:44:39.614Z,101631.80
2018-09-05T03:47:09.039Z,101639.05
2018-09-05T03:49:38.052Z,101635.56
2018-09-05T03:52:07.158Z,101639.91
2018-09-05T03:54:35.963Z,101639.34
2018-09-05T03:57:04.704Z,101643.05
2018-09-05T03:59:33.549Z,101635.80
2018-09-05T04:02:02.360Z,101645.38
2018-09-05T04:04:31.349Z,101639.66
2018-09-05T04:07:00.402Z,101641.92
2018-09-05T04:09:29.110Z,101643.63
2018-09-05T04:11:57.994Z,101649.09
2018-09-05T04:14:27.035Z,101643.70
2018-09-05T04:16:55.873Z,101639.34
2018-09-05T04:19:24.696Z,101642.95
2018-09-05T04:21:53.847Z,101642.73
2018-09-05T04:24:22.593Z,101642.73
2018-09-05T04:26:51.634Z,101644.40
2018-09-05T04:29:20.960Z,101647.00
2018-09-05T04:31:49.816Z,101645.78
2018-09-05T04:34:18.647Z,101640.72
2018-09-05T04:36:47.809Z,101641.84
2018-09-05T04:39:16.825Z,101645.38
2018-09-05T04:41:45.684Z,101642.54
2018-09-05T04:44:14.484Z,101645.59
2018-09-05T04:46:47.742Z,101641.25
2018-09-05T04:49:17.931Z,101646.46
2018-09-05T04:51:46.678Z,101646.25
2018-09-05T04:54:15.502Z,101641.07
2018-09-05T04:56:44.642Z,101643.98
2018-09-05T04:59:14.106Z,101646.47
2018-09-05T05:01:43.695Z,101645.36
2018-09-05T05:04:12.782Z,101643.98
2018-09-05T05:06:42.069Z,101652.00
2018-09-05T05:09:12.615Z,101656.69
2018-09-05T05:11:42.092Z,101657.47
2018-09-05T05:14:11.929Z,101658.34
2018-09-05T05:16:40.911Z,101665.50
2018-09-05T05:19:09.655Z,101667.69
2018-09-05T05:21:38.770Z,101662.44
2018-09-05T05:24:08.018Z,101664.27
2018-09-05T05:26:37.210Z,101662.51
2018-09-05T05:29:05.939Z,101664.02
2018-09-05T05:31:35.133Z,101662.72
2018-09-05T05:34:04.164Z,101665.05
2018-09-05T05:36:32.886Z,101665.34
2018-09-05T05:39:02.606Z,101671.63
2018-09-05T05:41:34.331Z,101668.83
2018-09-05T05:44:03.487Z,101667.78
2018-09-05T05:46:32.442Z,101671.48
2018-09-05T05:49:01.171Z,101671.81
2018-09-05T05:51:29.893Z,101673.61
2018-09-05T05:53:58.575Z,101675.95
2018-09-05T05:56:27.601Z,101680.45
2018-09-05T05:58:56.858Z,101674.34
2018-09-05T06:01:25.937Z,101680.55
2018-09-05T06:03:54.664Z,101685.88
2018-09-05T06:06:23.431Z,101685.48
2018-09-05T06:08:52.654Z,101686.98
2018-09-05T06:11:21.457Z,101687.31
2018-09-05T06:13:50.519Z,101695.12
2018-09-05T06:16:19.463Z,101697.78
2018-09-05T06:18:48.239Z,101700.94
2018-09-05T06:21:17.073Z,101703.02
2018-09-05T06:23:46.463Z,101703.52
2018-09-05T06:26:15.243Z,101697.91
2018-09-05T06:28:44.286Z,101702.79
2018-09-05T06:31:13.247Z,101706.12
2018-09-05T06:33:41.820Z,101697.57
2018-09-05T06:36:10.590Z,101698.58
2018-09-05T06:38:39.602Z,101699.20
2018-09-05T06:41:09.142Z,101699.47
2018-09-05T06:43:37.866Z,101706.20
2018-09-05T06:46:06.896Z,101705.23
2018-09-05T06:48:37.362Z,101707.61
2018-09-05T06:51:07.381Z,101707.61
2018-09-05T06:53:38.233Z,101706.23
2018-09-05T06:56:06.965Z,101704.16
2018-09-05T06:58:37.319Z,101700.98
2018-09-05T07:01:06.133Z,101709.05
2018-09-05T07:03:35.335Z,101713.59
2018-09-05T07:06:04.088Z,101708.29
2018-09-05T07:08:33.080Z,101699.94
2018-09-05T07:11:01.887Z,101702.62
2018-09-05T07:13:31.008Z,101711.98
2018-09-05T07:15:59.882Z,101706.09
2018-09-05T07:18:29.041Z,101703.41
2018-09-05T07:21:05.684Z,101710.09
2018-09-05T07:23:27.232Z,101709.77
2018-09-05T07:25:55.981Z,101708.98
2018-09-05T07:28:24.800Z,101711.44
2018-09-05T07:30:53.652Z,101708.84
2018-09-05T07:33:22.280Z,101710.39
2018-09-05T07:35:51.367Z,101708.36
2018-09-05T07:38:20.391Z,101705.30
2018-09-05T07:40:49.179Z,101711.17
2018-09-05T07:43:18.206Z,101712.46
2018-09-05T07:45:47.231Z,101710.80
2018-09-05T07:48:16.370Z,101700.74
2018-09-05T07:50:45.199Z,101706.92
2018-09-05T07:53:13.863Z,101704.64
2018-09-05T07:55:42.843Z,101713.70
2018-09-05T07:58:11.599Z,101704.06
2018-09-05T08:00:40.573Z,101705.77
2018-09-05T08:03:09.776Z,101700.97
2018-09-05T08:05:38.527Z,101701.95
2018-09-05T08:08:07.248Z,101707.77
2018-09-05T08:10:36.343Z,101711.53
2018-09-05T08:13:05.587Z,101718.47
2018-09-05T08:15:34.703Z,101712.34
2018-09-05T08:18:03.999Z,101713.58
2018-09-05T08:20:32.712Z,101710.77
2018-09-05T08:23:01.741Z,101713.48
2018-09-05T08:25:30.785Z,101713.76
2018-09-05T08:27:59.479Z,101716.53
2018-09-05T08:30:28.285Z,101710.20
2018-09-05T08:32:57.220Z,101712.00
2018-09-05T08:35:26.213Z,101707.20
2018-09-05T08:37:55.370Z,101706.01
2018-09-05T08:40:24.694Z,101711.19
2018-09-05T08:42:53.750Z,101710.73
2018-09-05T08:45:22.693Z,101712.71
2018-09-05T08:47:51.633Z,101706.33
2018-09-05T08:50:20.559Z,101709.29
2018-09-05T08:52:49.570Z,101711.67
2018-09-05T08:55:18.448Z,101712.12
2018-09-05T08:57:47.685Z,101717.70
2018-09-05T09:00:16.374Z,101719.02
2018-09-05T09:02:45.134Z,101719.67
2018-09-05T09:05:14.123Z,101720.17
2018-09-05T09:07:43.190Z,101711.44
2018-09-05T09:10:12.521Z,101716.62
2018-09-05T09:12:41.837Z,101715.72
2018-09-05T09:15:10.698Z,101713.03
2018-09-05T09:17:39.424Z,101708.05
2018-09-05T09:20:08.254Z,101708.94
2018-09-05T09:22:37.634Z,101705.84
2018-09-05T09:25:06.354Z,101699.77
2018-09-05T09:27:35.177Z,101705.45
2018-09-05T09:30:04.449Z,101705.43
2018-09-05T09:32:33.468Z,101702.72
2018-09-05T09:35:02.829Z,101700.48
2018-09-05T09:37:31.818Z,101699.05
2018-09-05T09:40:00.568Z,101701.43
2018-09-05T09:42:29.297Z,101696.91
2018-09-05T09:44:58.080Z,101696.56
2018-09-05T09:47:27.569Z,101695.91
2018-09-05T09:49:57.129Z,101688.31
2018-09-05T09:52:25.840Z,101681.33
2018-09-05T09:54:54.572Z,101685.02
2018-09-05T09:57:23.349Z,101685.95
2018-09-05T09:59:52.326Z,101686.13
2018-09-05T10:02:26.323Z,101676.23
2018-09-05T10:05:00.540Z,101675.11
2018-09-05T10:07:34.712Z,101668.97
2018-09-05T10:10:08.712Z,101659.67
2018-09-05T10:12:47.336Z,101658.91
2018-09-05T10:15:22.333Z,101656.02
2018-09-05T10:17:56.186Z,101661.05
2018-09-05T10:20:24.913Z,101654.27
2018-09-05T10:22:54.040Z,101650.76
2018-09-05T10:25:22.719Z,101651.42
2018-09-05T10:27:51.791Z,101649.09
2018-09-05T10:30:20.536Z,101640.17
2018-09-05T10:32:49.577Z,101641.95
2018-09-05T10:35:19.235Z,101644.33
2018-09-05T10:37:48.421Z,101633.95
2018-09-05T10:40:17.444Z,101636.27
2018-09-05T10:42:46.937Z,101643.23
2018-09-05T10:45:15.663Z,101633.68
2018-09-05T10:47:44.619Z,101638.02
2018-09-05T10:50:13.699Z,101629.52
2018-09-05T10:52:42.431Z,101634.82
2018-09-05T10:55:11.888Z,101634.57
2018-09-05T10:57:40.631Z,101629.43
2018-09-05T11:00:09.861Z,101631.10
2018-09-05T11:02:38.638Z,101632.02
2018-09-05T11:05:07.435Z,101632.86
2018-09-05T11:07:36.203Z,101632.81
2018-09-05T11:10:04.935Z,101628.25
2018-09-05T11:12:34.024Z,101622.81
2018-09-05T11:15:06.502Z,101623.50
2018-09-05T11:17:35.673Z,101618.62
2018-09-05T11:20:04.866Z,101614.59
2018-09-05T11:22:33.825Z,101616.42
2018-09-05T11:25:02.821Z,101614.23
2018-09-05T11:27:31.694Z,101607.94
2018-09-05T11:30:00.721Z,101610.39
2018-09-05T11:32:29.490Z,101608.31
2018-09-05T11:34:59.368Z,101611.89
2018-09-05T11:37:28.726Z,101608.06
2018-09-05T11:39:57.689Z,101606.08
2018-09-05T11:42:26.405Z,101601.25
2018-09-05T11:44:55.320Z,101597.11
2018-09-05T11:47:24.062Z,101602.18
2018-09-05T11:49:52.805Z,101606.67
2018-09-05T11:52:22.442Z,101607.40
2018-09-05T11:54:51.552Z,101608.51
2018-09-05T11:57:20.624Z,101596.06
2018-09-05T11:59:49.407Z,101600.16
2018-09-05T12:02:18.828Z,101598.99
2018-09-05T12:04:48.167Z,101597.03
2018-09-05T12:07:16.998Z,101600.45
2018-09-05T12:09:45.735Z,101595.89
2018-09-05T12:12:14.623Z,101594.70
2018-09-05T12:14:43.605Z,101591.75
2018-09-05T12:17:13.041Z,101598.64
2018-09-05T12:19:42.083Z,101596.69
2018-09-05T12:22:10.845Z,101592.23
2018-09-05T12:24:40.049Z,101593.48
2018-09-05T12:27:09.336Z,101592.11
2018-09-05T12:29:38.238Z,101589.05
2018-09-05T12:32:07.330Z,101590.81
2018-09-05T12:34:36.778Z,101588.18
2018-09-05T12:37:05.781Z,101581.16
2018-09-05T12:39:34.868Z,101579.08
2018-09-05T12:42:03.808Z,101573.43
2018-09-05T12:44:33.127Z,101565.16
2018-09-05T12:47:02.109Z,101563.94
2018-09-05T12:49:30.904Z,101563.67
2018-09-05T12:51:59.614Z,101567.89
2018-09-05T12:54:28.667Z,101565.19
2018-09-05T12:56:57.730Z,101564.59
2018-09-05T12:59:26.891Z,101562.82
2018-09-05T13:01:56.050Z,101560.63
2018-09-05T13:04:25.147Z,101549.33
2018-09-05T13:06:54.496Z,101552.08
2018-09-05T13:09:23.543Z,101556.28
2018-09-05T13:11:52.594Z,101544.78
2018-09-05T13:14:21.907Z,101550.08
2018-09-05T13:16:52.182Z,101548.73
2018-09-05T13:19:21.352Z,101541.47
2018-09-05T13:21:50.544Z,101538.94
2018-09-05T13:24:20.301Z,101535.67
2018-09-05T13:26:49.337Z,101533.05
2018-09-05T13:29:18.353Z,101524.52
2018-09-05T13:31:47.321Z,101531.13
2018-09-05T13:34:16.368Z,101531.31
2018-09-05T13:36:45.493Z,101532.42
2018-09-05T13:39:14.481Z,101527.75
2018-09-05T13:41:43.458Z,101526.34
2018-09-05T13:44:12.155Z,101524.98
2018-09-05T13:46:41.208Z,101525.73
2018-09-05T13:49:09.904Z,101522.42
2018-09-05T13:51:39.024Z,101517.70
2018-09-05T13:54:08.505Z,101519.88
2018-09-05T13:56:37.640Z,101515.31
2018-09-05T13:59:06.931Z,101514.25
2018-09-05T14:01:36.011Z,101513.47
2018-09-05T14:04:04.760Z,101510.63
2018-09-05T14:06:33.812Z,101503.98
2018-09-05T14:09:02.952Z,101505.06
2018-09-05T14:11:31.680Z,101498.91
2018-09-05T14:14:01.003Z,101497.77
2018-09-05T14:16:29.722Z,101496.39
2018-09-05T14:18:58.465Z,101497.08
2018-09-05T14:21:27.417Z,101493.70
2018-09-05T14:23:56.999Z,101490.65
2018-09-05T14:26:25.783Z,101482.63
2018-09-05T14:28:54.585Z,101486.03
2018-09-05T14:31:23.824Z,101487.34
2018-09-05T14:33:52.638Z,101486.62
2018-09-05T14:36:21.392Z,101478.95
2018-09-05T14:38:50.084Z,101473.02
2018-09-05T14:41:19.032Z,101473.16
2018-09-05T14:43:47.795Z,101466.70
2018-09-05T14:46:17.080Z,101470.59
2018-09-05T14:48:45.772Z,101467.48
2018-09-05T14:51:14.736Z,101468.02
2018-09-05T14:53:43.469Z,101465.13
2018-09-05T14:56:12.160Z,101466.58
2018-09-05T14:58:40.843Z,101472.64
2018-09-05T15:01:09.947Z,101464.58
2018-09-05T15:03:38.728Z,101459.60
2018-09-05T15:06:07.954Z,101466.89
2018-09-05T15:08:36.984Z,101463.44
2018-09-05T15:11:05.990Z,101456.60
2018-09-05T15:13:34.739Z,101449.84
2018-09-05T15:16:03.430Z,101453.80
2018-09-05T15:18:32.408Z,101457.63
2018-09-05T15:21:01.439Z,101456.41
2018-09-05T15:23:30.180Z,101450.09
2018-09-05T15:25:59.014Z,101444.88
2018-09-05T15:28:28.212Z,101446.42
2018-09-05T15:30:56.931Z,101446.42
2018-09-05T15:33:25.995Z,101443.51
2018-09-05T15:35:55.283Z,101440.22
2018-09-05T15:38:24.304Z,101437.16
2018-09-05T15:40:53.069Z,101438.31
2018-09-05T15:43:22.357Z,101437.37
2018-09-05T15:45:51.619Z,101438.16
2018-09-05T15:48:20.976Z,101430.09
2018-09-05T15:50:49.654Z,101430.05
2018-09-05T15:53:18.723Z,101430.35
2018-09-05T15:55:48.415Z,101427.30
2018-09-05T15:58:17.136Z,101432.22
2018-09-05T16:00:46.180Z,101425.80
2018-09-05T16:03:15.090Z,101428.09
2018-09-05T16:05:44.224Z,101425.06
2018-09-05T16:08:13.733Z,101428.94
2018-09-05T16:10:42.490Z,101434.80
2018-09-05T16:13:11.590Z,101428.09
2018-09-05T16:15:40.833Z,101427.78
2018-09-05T16:18:09.990Z,101427.57
2018-09-05T16:20:38.730Z,101425.91
2018-09-05T16:23:08.337Z,101426.11
2018-09-05T16:25:37.646Z,101419.87
2018-09-05T16:28:06.393Z,101424.05
2018-09-05T16:30:35.149Z,101429.27
2018-09-05T16:33:04.929Z,101425.11
2018-09-05T16:35:33.670Z,101427.97
2018-09-05T16:38:02.668Z,101423.08
2018-09-05T16:40:31.414Z,101420.38
2018-09-05T16:43:00.421Z,101429.20
2018-09-05T16:45:29.415Z,101422.46
2018-09-05T16:47:58.701Z,101433.61
2018-09-05T16:50:27.411Z,101431.46
2018-09-05T16:52:56.198Z,101426.30
2018-09-05T16:55:24.934Z,101423.36
2018-09-05T16:57:54.177Z,101423.94
2018-09-05T17:00:22.850Z,101420.01
2018-09-05T17:02:51.591Z,101429.14
2018-09-05T17:05:20.603Z,101424.80
2018-09-05T17:07:49.324Z,101417.67
2018-09-05T17:10:18.681Z,101414.48
2018-09-05T17:12:47.782Z,101412.72
2018-09-05T17:15:16.838Z,101415.54
2018-09-05T17:17:45.901Z,101415.12
2018-09-05T17:20:14.855Z,101413.38
2018-09-05T17:22:43.945Z,101418.73
2018-09-05T17:25:15.788Z,101423.11
2018-09-05T17:27:44.814Z,101422.32
2018-09-05T17:30:13.765Z,101423.32
2018-09-05T17:32:42.546Z,101424.12
2018-09-05T17:35:11.724Z,101426.50
2018-09-05T17:37:40.715Z,101426.86
2018-09-05T17:40:09.499Z,101425.67
2018-09-05T17:42:38.198Z,101423.08
2018-09-05T17:45:07.202Z,101430.44
2018-09-05T17:47:35.895Z,101425.25
2018-09-05T17:50:04.591Z,101417.28
2018-09-05T17:52:33.706Z,101420.04
2018-09-05T17:55:02.407Z,101419.80
2018-09-05T17:57:31.140Z,101415.79
2018-09-05T18:00:00.676Z,101420.89
2018-09-05T18:02:29.359Z,101425.21
2018-09-05T18:04:58.443Z,101424.95
2018-09-05T18:07:27.474Z,101421.11
2018-09-05T18:09:56.268Z,101419.00
2018-09-05T18:12:24.984Z,101418.97
2018-09-05T18:14:53.850Z,101424.66
2018-09-05T18:17:22.559Z,101430.35
2018-09-05T18:19:51.776Z,101434.47
2018-09-05T18:22:20.746Z,101433.54
2018-09-05T18:24:49.786Z,101445.58
2018-09-05T18:27:18.792Z,101447.92
2018-09-05T18:29:47.808Z,101440.73
2018-09-05T18:32:17.117Z,101441.90
2018-09-05T18:34:46.098Z,101439.25
2018-09-05T18:37:14.819Z,101446.34
2018-09-05T18:39:43.594Z,101447.84
2018-09-05T18:42:12.326Z,101453.32
2018-09-05T18:44:41.836Z,101451.05
2018-09-05T18:47:10.588Z,101450.39
2018-09-05T18:49:39.283Z,101446.87
2018-09-05T18:52:07.999Z,101452.55
2018-09-05T18:54:37.536Z,101454.83
2018-09-05T18:57:08.452Z,101455.55
2018-09-05T18:59:37.532Z,101457.02
2018-09-05T19:02:06.548Z,101451.80
2018-09-05T19:04:35.554Z,101452.97
2018-09-05T19:07:04.281Z,101450.72
2018-09-05T19:09:33.088Z,101452.45
2018-09-05T19:12:02.270Z,101450.71
2018-09-05T19:14:30.974Z,101458.77
2018-09-05T19:16:59.680Z,101449.69
2018-09-05T19:19:28.450Z,101452.45
2018-09-05T19:21:57.170Z,101445.08
2018-09-05T19:24:26.230Z,101442.24
2018-09-05T19:26:55.205Z,101445.38
2018-09-05T19:29:23.937Z,101433.04
2018-09-05T19:31:52.744Z,101439.32
2018-09-05T19:34:22.141Z,101439.09
2018-09-05T19:36:50.900Z,101436.71
2018-09-05T19:39:20.143Z,101437.84
2018-09-05T19:41:48.967Z,101434.00
2018-09-05T19:44:18.022Z,101430.17
2018-09-05T19:46:47.107Z,101430.55
2018-09-05T19:49:16.231Z,101430.25
2018-09-05T19:51:44.874Z,101427.08
2018-09-05T19:54:13.633Z,101427.80
2018-09-05T19:56:42.347Z,101429.52
2018-09-05T19:59:11.091Z,101426.81
2018-09-05T20:01:40.089Z,101429.28
2018-09-05T20:04:09.052Z,101429.32
2018-09-05T20:06:38.092Z,101423.58
2018-09-05T20:09:07.756Z,101421.86
2018-09-05T20:11:36.627Z,101425.03
2018-09-05T20:14:05.649Z,101422.34
2018-09-05T20:16:34.651Z,101421.70
2018-09-05T20:19:03.896Z,101423.94
2018-09-05T20:21:33.754Z,101427.52
2018-09-05T20:24:02.954Z,101424.91
2018-09-05T20:26:31.728Z,101422.52
2018-09-05T20:29:00.514Z,101419.08
2018-09-05T20:31:29.341Z,101416.84
2018-09-05T20:33:58.802Z,101410.16
2018-09-05T20:36:28.539Z,101416.64
2018-09-05T20:38:57.270Z,101418.37
2018-09-05T20:41:26.367Z,101413.59
2018-09-05T20:43:55.477Z,101416.13
2018-09-05T20:46:24.434Z,101411.94
2018-09-05T20:48:53.219Z,101407.38
2018-09-05T20:51:22.777Z,101413.64
2018-09-05T20:53:51.575Z,101414.01
2018-09-05T20:56:20.321Z,101408.63
2018-09-05T20:58:49.560Z,101412.17
2018-09-05T21:01:18.659Z,101403.27
2018-09-05T21:03:47.916Z,101404.56
2018-09-05T21:06:17.190Z,101405.66
2018-09-05T21:08:52.498Z,101404.20
2018-09-05T21:11:21.567Z,101405.86
2018-09-05T21:13:50.451Z,101397.31
2018-09-05T21:16:19.808Z,101398.19
2018-09-05T21:18:49.133Z,101391.22
2018-09-05T21:21:17.940Z,101392.42
2018-09-05T21:23:46.680Z,101401.20
2018-09-05T21:26:15.750Z,101396.34
2018-09-05T21:28:44.514Z,101403.30
2018-09-05T21:31:13.928Z,101395.87
2018-09-05T21:33:42.718Z,101393.48
2018-09-05T21:36:11.709Z,101395.81
2018-09-05T21:38:40.457Z,101388.61
2018-09-05T21:41:09.247Z,101394.82
2018-09-05T21:43:38.048Z,101391.55
2018-09-05T21:46:07.458Z,101388.61
2018-09-05T21:48:36.202Z,101389.70
2018-09-05T21:51:04.994Z,101388.69
2018-09-05T21:53:33.972Z,101386.56
2018-09-05T21:56:03.257Z,101390.61
2018-09-05T21:58:35.015Z,101396.61
2018-09-05T22:01:04.344Z,101393.40
2018-09-05T22:03:33.128Z,101389.53
2018-09-05T22:06:08.124Z,101388.38
2018-09-05T22:08:37.260Z,101385.41
2018-09-05T22:11:11.234Z,101379.47
2018-09-05T22:13:40.019Z,101379.47
2018-09-05T22:16:09.063Z,101376.20
2018-09-05T22:18:38.768Z,101377.48
2018-09-05T22:21:07.672Z,101378.98
2018-09-05T22:23:36.684Z,101383.70
2018-09-05T22:26:05.486Z,101382.89
2018-09-05T22:28:34.891Z,101377.28
2018-09-05T22:31:03.906Z,101376.63
2018-09-05T22:33:33.491Z,101375.02
2018-09-05T22:36:02.758Z,101375.75
2018-09-05T22:38:31.547Z,101376.66
2018-09-05T22:41:00.289Z,101377.61
2018-09-05T22:43:40.463Z,101378.53
2018-09-05T22:46:20.845Z,101373.52
2018-09-05T22:49:01.155Z,101374.83
2018-09-05T22:52:13.347Z,101366.44
2018-09-05T22:56:59.660Z,101361.19
2018-09-05T23:00:22.151Z,101363.19
2018-09-05T23:03:59.311Z,101363.02
2018-09-05T23:08:40.829Z,101359.92
2018-09-05T23:11:56.183Z,101355.87
2018-09-05T23:14:36.743Z,101350.63
2018-09-05T23:17:16.594Z,101347.22
2018-09-05T23:20:17.156Z,101342.53
2018-09-05T23:22:57.338Z,101333.52
2018-09-05T23:25:26.157Z,101327.48
2018-09-05T23:27:55.289Z,101329.56
2018-09-05T23:30:24.048Z,101321.57
2018-09-05T23:32:52.857Z,101319.98
2018-09-05T23:35:21.824Z,101320.46
2018-09-05T23:37:50.626Z,101314.16
2018-09-05T23:40:19.365Z,101317.27
2018-09-05T23:42:48.118Z,101317.38
2018-09-05T23:45:16.884Z,101309.39
2018-09-05T23:47:45.613Z,101314.22
2018-09-05T23:50:14.389Z,101307.82
2018-09-05T23:52:43.445Z,101314.22
2018-09-05T23:55:13.033Z,101312.06
2018-09-05T23:57:42.753Z,101313.08
